createdAt,value
2022-10-12T00:00:06.474Z,101434.88
2022-10-12T00:02:41.075Z,101450.75
2022-10-12T00:05:08.856Z,101449.75
2022-10-12T00:07:36.739Z,101440.38
2022-10-12T00:10:04.969Z,101438.13
2022-10-12T00:12:32.459Z,101448.28
2022-10-12T00:14:59.921Z,101443.13
2022-10-12T00:17:27.319Z,101446.34
2022-10-12T00:19:54.720Z,101443.59
2022-10-12T00:22:22.217Z,101442.69
2022-10-12T00:24:49.756Z,101448.41
2022-10-12T00:27:17.124Z,101447.53
2022-10-12T00:29:44.698Z,101447.22
2022-10-12T00:32:12.274Z,101448.16
2022-10-12T00:34:39.788Z,101438.09
2022-10-12T00:37:07.144Z,101447.09
2022-10-12T00:39:34.759Z,101439.19
2022-10-12T00:42:02.202Z,101436.78
2022-10-12T00:44:43.083Z,101446.78
2022-10-12T00:47:17.788Z,101437.97
2022-10-12T00:49:56.724Z,101443.41
2022-10-12T00:52:29.808Z,101439.28
2022-10-12T00:54:57.941Z,101441.94
2022-10-12T00:57:25.540Z,101439.84
2022-10-12T00:59:58.703Z,101436.53
2022-10-12T01:02:29.463Z,101438.34
2022-10-12T01:04:57.692Z,101434.75
2022-10-12T01:07:25.336Z,101433.72
2022-10-12T01:09:53.063Z,101437.47
2022-10-12T01:12:21.411Z,101439.19
2022-10-12T01:14:49.074Z,101436.56
2022-10-12T01:17:22.635Z,101440.59
2022-10-12T01:20:10.163Z,101445.31
2022-10-12T01:23:05.969Z,101438.66
2022-10-12T01:25:45.243Z,101441.31
2022-10-12T01:28:35.887Z,101435.50
2022-10-12T01:31:18.436Z,101441.44
2022-10-12T01:33:50.635Z,101432.84
2022-10-12T01:36:27.192Z,101441.94
2022-10-12T01:39:22.483Z,101428.09
2022-10-12T01:41:55.432Z,101433.22
2022-10-12T01:44:25.886Z,101437.63
2022-10-12T01:46:55.551Z,101442.56
2022-10-12T01:49:26.648Z,101437.31
2022-10-12T01:52:00.956Z,101441.84
2022-10-12T01:54:43.826Z,101446.44
2022-10-12T01:57:56.415Z,101442.97
2022-10-12T02:00:24.491Z,101447.28
2022-10-12T02:03:12.782Z,101447.81
2022-10-12T02:05:53.841Z,101450.56
2022-10-12T02:08:33.279Z,101451.34
2022-10-12T02:11:06.657Z,101443.53
2022-10-12T02:13:38.613Z,101445.91
2022-10-12T02:16:11.705Z,101448.56
2022-10-12T02:18:43.820Z,101438.66
2022-10-12T02:21:16.066Z,101433.22
2022-10-12T02:23:45.669Z,101437.47
2022-10-12T02:26:15.660Z,101423.09
2022-10-12T02:28:45.055Z,101438.16
2022-10-12T02:31:19.519Z,101431.34
2022-10-12T02:33:57.284Z,101433.81
2022-10-12T02:36:46.045Z,101422.53
2022-10-12T02:39:36.172Z,101418.28
2022-10-12T02:42:12.392Z,101423.84
2022-10-12T02:44:42.047Z,101416.81
2022-10-12T02:47:11.721Z,101423.13
2022-10-12T02:49:40.446Z,101415.41
2022-10-12T02:52:08.421Z,101418.47
2022-10-12T02:54:36.657Z,101416.78
2022-10-12T02:57:04.062Z,101412.56
2022-10-12T02:59:31.555Z,101415.16
2022-10-12T03:01:58.884Z,101415.16
2022-10-12T03:04:26.346Z,101414.94
2022-10-12T03:06:53.730Z,101413.66
2022-10-12T03:09:21.373Z,101406.75
2022-10-12T03:11:48.792Z,101404.75
2022-10-12T03:14:17.461Z,101413.88
2022-10-12T03:16:46.636Z,101410.25
2022-10-12T03:19:15.050Z,101412.06
2022-10-12T03:21:42.445Z,101410.28
2022-10-12T03:24:09.951Z,101407.75
2022-10-12T03:26:37.467Z,101406.75
2022-10-12T03:29:05.409Z,101411.34
2022-10-12T03:31:32.825Z,101410.50
2022-10-12T03:34:00.561Z,101412.47
2022-10-12T03:36:27.933Z,101400.25
2022-10-12T03:38:55.632Z,101409.81
2022-10-12T03:41:23.189Z,101412.56
2022-10-12T03:43:50.629Z,101411.69
2022-10-12T03:46:18.148Z,101418.47
2022-10-12T03:48:45.566Z,101416.75
2022-10-12T03:51:13.140Z,101408.59
2022-10-12T03:53:45.184Z,101414.75
2022-10-12T03:56:13.385Z,101424.72
2022-10-12T03:58:40.956Z,101408.09
2022-10-12T04:01:08.426Z,101413.69
2022-10-12T04:03:36.596Z,101407.78
2022-10-12T04:06:04.133Z,101406.03
2022-10-12T04:08:31.575Z,101414.88
2022-10-12T04:10:59.014Z,101412.50
2022-10-12T04:13:26.398Z,101413.69
2022-10-12T05:09:44.697Z,101409.69
2022-10-12T05:28:12.789Z,101429.91
2022-10-12T05:30:48.097Z,101428.56
2022-10-12T05:56:51.692Z,101429.88
2022-10-12T08:07:25.326Z,101515.69
2022-10-12T08:09:52.823Z,101522.16
2022-10-12T08:12:20.664Z,101533.63
2022-10-12T08:14:48.191Z,101518.88
2022-10-12T08:17:15.800Z,101539.09
2022-10-12T08:19:43.283Z,101529.09
2022-10-12T08:22:12.540Z,101534.78
2022-10-12T08:24:39.957Z,101534.22
2022-10-12T08:27:07.528Z,101524.88
2022-10-12T08:29:35.033Z,101525.78
2022-10-12T08:32:02.569Z,101530.28
2022-10-12T08:34:30.978Z,101524.09
2022-10-12T08:36:59.649Z,101512.78
2022-10-12T08:39:27.605Z,101517.22
2022-10-12T08:42:16.567Z,101518.00
2022-10-12T08:45:01.664Z,101520.47
2022-10-12T08:47:51.575Z,101519.06
2022-10-12T08:50:38.603Z,101500.50
2022-10-12T08:53:19.427Z,101517.91
2022-10-12T08:55:47.165Z,101517.06
2022-10-12T08:58:35.674Z,101515.28
2022-10-12T09:01:16.631Z,101522.56
2022-10-12T09:03:55.609Z,101524.28
2022-10-12T09:06:30.125Z,101505.13
2022-10-12T09:09:03.408Z,101516.72
2022-10-12T09:11:58.833Z,101510.19
2022-10-12T09:14:30.913Z,101510.31
2022-10-12T09:17:02.615Z,101509.13
2022-10-12T09:19:42.025Z,101517.41
2022-10-12T09:22:19.424Z,101506.63
2022-10-12T09:24:49.978Z,101503.09
2022-10-12T09:27:20.542Z,101512.22
2022-10-12T09:29:52.311Z,101520.09
2022-10-12T09:32:40.705Z,101508.78
2022-10-12T09:35:13.105Z,101513.59
2022-10-12T09:37:41.279Z,101510.06
2022-10-12T09:40:22.200Z,101518.94
2022-10-12T09:42:51.026Z,101518.50
2022-10-12T09:45:20.776Z,101503.16
2022-10-12T09:48:20.551Z,101517.03
2022-10-12T09:51:04.225Z,101519.19
2022-10-12T09:53:56.745Z,101509.09
2022-10-12T09:56:36.345Z,101496.25
2022-10-12T09:59:25.434Z,101505.53
2022-10-12T10:02:04.217Z,101498.75
2022-10-12T10:04:34.931Z,101494.34
2022-10-12T10:07:22.728Z,101499.34
2022-10-12T10:10:18.548Z,101495.16
2022-10-12T10:13:03.004Z,101500.34
2022-10-12T10:15:38.810Z,101492.41
2022-10-12T10:18:17.846Z,101496.06
2022-10-12T10:20:53.352Z,101493.72
2022-10-12T10:23:33.434Z,101490.47
2022-10-12T10:26:08.703Z,101494.88
2022-10-12T10:28:38.678Z,101487.00
2022-10-12T10:31:13.904Z,101508.88
2022-10-12T10:33:41.917Z,101498.88
2022-10-12T10:36:20.488Z,101500.94
2022-10-12T10:39:16.260Z,101500.75
2022-10-12T10:41:44.027Z,101500.06
2022-10-12T10:44:37.596Z,101493.84
2022-10-12T10:47:11.833Z,101494.00
2022-10-12T10:50:00.561Z,101501.28
2022-10-12T10:52:36.937Z,101495.38
2022-10-12T10:55:10.163Z,101506.28
2022-10-12T10:57:45.279Z,101505.41
2022-10-12T11:00:39.096Z,101494.72
2022-10-12T11:03:31.380Z,101500.91
2022-10-12T11:06:16.619Z,101498.00
2022-10-12T11:08:44.670Z,101497.63
2022-10-12T11:11:21.165Z,101490.47
2022-10-12T11:14:19.277Z,101488.13
2022-10-12T11:17:01.753Z,101492.53
2022-10-12T11:19:42.311Z,101485.53
2022-10-12T11:22:19.233Z,101482.28
2022-10-12T11:25:02.177Z,101482.56
2022-10-12T11:27:40.947Z,101486.78
2022-10-12T11:30:17.854Z,101491.44
2022-10-12T11:33:03.223Z,101479.75
2022-10-12T11:35:40.288Z,101466.25
2022-10-12T11:38:22.583Z,101470.97
2022-10-12T11:41:31.128Z,101472.97
2022-10-12T11:44:20.609Z,101461.44
2022-10-12T11:47:00.680Z,101458.34
2022-10-12T11:49:46.707Z,101466.69
2022-10-12T11:52:15.375Z,101461.16
2022-10-12T11:55:05.351Z,101459.94
2022-10-12T11:57:37.364Z,101458.88
2022-10-12T12:00:19.513Z,101458.47
2022-10-12T12:02:55.808Z,101447.81
2022-10-12T12:05:23.461Z,101444.94
2022-10-12T12:07:53.878Z,101447.28
2022-10-12T12:10:37.151Z,101441.03
2022-10-12T12:13:13.441Z,101439.09
2022-10-12T12:15:43.481Z,101431.44
2022-10-12T12:18:18.754Z,101441.84
2022-10-12T12:20:49.069Z,101438.81
2022-10-12T12:23:29.455Z,101433.75
2022-10-12T12:26:16.305Z,101429.53
2022-10-12T12:28:49.977Z,101433.66
2022-10-12T12:31:23.522Z,101438.25
2022-10-12T12:34:02.361Z,101431.66
2022-10-12T12:36:33.833Z,101412.47
2022-10-12T12:39:03.006Z,101408.81
2022-10-12T12:42:00.575Z,101422.28
2022-10-12T12:44:37.944Z,101411.22
2022-10-12T12:47:26.074Z,101408.78
2022-10-12T12:49:55.766Z,101402.53
2022-10-12T12:52:34.096Z,101409.84
2022-10-12T12:55:26.744Z,101408.13
2022-10-12T12:58:09.605Z,101407.72
2022-10-12T13:01:00.504Z,101402.13
2022-10-12T13:04:00.062Z,101394.75
2022-10-12T13:06:27.482Z,101403.28
2022-10-12T13:09:31.720Z,101408.97
2022-10-12T13:12:14.285Z,101394.78
2022-10-12T13:14:59.145Z,101398.69
2022-10-12T13:17:54.472Z,101393.41
2022-10-12T13:20:26.938Z,101388.94
2022-10-12T13:22:57.918Z,101398.09
2022-10-12T13:25:32.931Z,101386.94
2022-10-12T13:28:04.601Z,101393.97
2022-10-12T13:30:55.908Z,101385.63
2022-10-12T13:33:50.975Z,101371.88
2022-10-12T13:36:23.780Z,101384.50
2022-10-12T13:39:00.170Z,101382.06
2022-10-12T13:41:30.537Z,101376.63
2022-10-12T13:44:04.853Z,101374.75
2022-10-12T13:46:45.947Z,101385.00
2022-10-12T13:49:20.259Z,101370.25
2022-10-12T13:51:53.320Z,101371.69
2022-10-12T13:54:41.688Z,101362.50
2022-10-12T13:57:42.699Z,101365.53
2022-10-12T14:00:21.022Z,101375.78
2022-10-12T14:02:59.518Z,101376.72
2022-10-12T14:05:35.018Z,101373.22
2022-10-12T14:08:11.153Z,101370.09
2022-10-12T14:10:39.320Z,101371.00
2022-10-12T14:13:09.477Z,101367.63
2022-10-12T14:15:40.009Z,101367.56
2022-10-12T14:18:50.817Z,101369.50
2022-10-12T14:21:33.294Z,101359.63
2022-10-12T14:24:09.869Z,101354.53
2022-10-12T14:26:55.802Z,101350.97
2022-10-12T14:29:40.402Z,101349.88
2022-10-12T14:32:37.465Z,101355.88
2022-10-12T14:35:12.673Z,101356.75
2022-10-12T14:37:40.028Z,101369.94
2022-10-12T14:40:26.456Z,101362.56
2022-10-12T14:43:15.302Z,101362.88
2022-10-12T14:45:42.847Z,101353.81
2022-10-12T14:48:16.512Z,101358.88
2022-10-12T14:50:44.522Z,101349.91
2022-10-12T14:53:13.836Z,101357.72
2022-10-12T14:55:42.691Z,101354.34
2022-10-12T14:58:15.624Z,101344.81
2022-10-12T15:00:44.245Z,101357.66
2022-10-12T15:03:12.101Z,101347.78
2022-10-12T15:05:39.760Z,101362.19
2022-10-12T15:08:38.344Z,101349.81
2022-10-12T15:11:06.895Z,101358.50
2022-10-12T15:13:38.194Z,101348.06
2022-10-12T15:16:18.579Z,101350.78
2022-10-12T15:18:46.406Z,101353.63
2022-10-12T15:21:14.114Z,101348.34
2022-10-12T15:23:42.617Z,101344.63
2022-10-12T15:26:16.316Z,101336.63
2022-10-12T15:28:44.418Z,101348.22
2022-10-12T15:31:19.578Z,101349.47
2022-10-12T15:33:47.747Z,101342.13
2022-10-12T15:36:15.552Z,101340.03
2022-10-12T15:38:42.995Z,101354.34
2022-10-12T15:41:20.607Z,101341.44
2022-10-12T15:43:51.080Z,101345.63
2022-10-12T15:46:27.923Z,101345.22
2022-10-12T15:48:57.871Z,101335.00
2022-10-12T15:51:25.565Z,101339.78
2022-10-12T15:53:56.289Z,101343.50
2022-10-12T15:56:24.172Z,101336.72
2022-10-12T15:58:51.897Z,101337.38
2022-10-12T16:01:20.653Z,101336.63
2022-10-12T16:03:49.572Z,101346.94
2022-10-12T16:06:17.040Z,101344.91
2022-10-12T16:08:44.504Z,101349.41
2022-10-12T16:11:14.536Z,101345.03
2022-10-12T16:13:47.990Z,101346.06
2022-10-12T16:16:19.402Z,101336.88
2022-10-12T16:18:46.904Z,101342.91
2022-10-12T16:21:14.396Z,101346.03
2022-10-12T16:23:42.275Z,101354.63
2022-10-12T16:26:19.349Z,101345.34
2022-10-12T16:28:46.961Z,101355.47
2022-10-12T16:31:17.693Z,101357.22
2022-10-12T16:33:50.175Z,101357.19
2022-10-12T16:36:20.475Z,101349.59
2022-10-12T16:38:47.907Z,101347.59
2022-10-12T16:41:16.697Z,101349.81
2022-10-12T16:43:44.680Z,101352.84
2022-10-12T16:46:36.760Z,101354.94
2022-10-12T16:49:04.281Z,101341.84
2022-10-12T16:51:31.887Z,101355.91
2022-10-12T16:53:59.431Z,101358.72
2022-10-12T16:56:27.105Z,101352.94
2022-10-12T16:59:00.091Z,101363.25
2022-10-12T17:01:27.632Z,101366.66
2022-10-12T17:03:55.155Z,101364.31
2022-10-12T17:06:27.993Z,101367.66
2022-10-12T17:08:58.665Z,101374.88
2022-10-12T17:11:26.103Z,101363.38
2022-10-12T17:13:57.189Z,101373.13
2022-10-12T17:16:47.049Z,101385.50
2022-10-12T17:19:32.530Z,101373.97
2022-10-12T17:22:04.253Z,101378.41
2022-10-12T17:24:34.512Z,101384.69
2022-10-12T17:27:03.837Z,101390.16
2022-10-12T17:29:32.600Z,101386.00
2022-10-12T17:32:10.127Z,101390.69
2022-10-12T17:34:44.904Z,101403.34
2022-10-12T17:37:13.625Z,101402.09
2022-10-12T17:40:00.609Z,101408.13
2022-10-12T17:42:30.915Z,101408.69
2022-10-12T17:44:59.755Z,101406.63
2022-10-12T17:47:30.335Z,101420.72
2022-10-12T17:49:57.825Z,101409.50
2022-10-12T17:52:36.270Z,101412.94
2022-10-12T17:55:03.986Z,101405.44
2022-10-12T17:57:31.434Z,101413.22
2022-10-12T18:00:02.589Z,101413.47
2022-10-12T18:02:40.669Z,101418.22
2022-10-12T18:05:09.640Z,101414.69
2022-10-12T18:07:41.438Z,101422.34
2022-10-12T18:10:09.864Z,101429.78
2022-10-12T18:12:37.596Z,101426.03
2022-10-12T18:15:07.527Z,101416.16
2022-10-12T18:17:35.339Z,101423.81
2022-10-12T18:20:05.313Z,101426.34
2022-10-12T18:22:33.554Z,101426.78
2022-10-12T23:24:43.824Z,101477.88
2022-10-12T23:27:17.957Z,101472.66
2022-10-12T23:30:44.403Z,101476.75
2022-10-12T23:33:48.463Z,101481.88
2022-10-12T23:45:45.493Z,101488.97
2022-10-12T23:52:28.581Z,101485.06
2022-10-12T23:55:07.402Z,101477.19
2022-10-12T23:58:57.676Z,101491.44
